createdAt,value
2022-07-31T00:00:12.987Z,99292.69
2022-07-31T00:02:39.630Z,99293.75
2022-07-31T00:05:06.879Z,99281.19
2022-07-31T00:07:33.606Z,99289.09
2022-07-31T00:10:00.379Z,99290.44
2022-07-31T00:12:26.961Z,99289.09
2022-07-31T00:14:53.649Z,99283.53
2022-07-31T00:17:20.460Z,99290.50
2022-07-31T00:19:47.293Z,99284.81
2022-07-31T00:22:13.897Z,99283.19
2022-07-31T00:24:40.912Z,99284.19
2022-07-31T00:27:08.074Z,99286.84
2022-07-31T00:29:34.684Z,99285.66
2022-07-31T00:32:01.302Z,99282.97
2022-07-31T00:34:28.000Z,99285.44
2022-07-31T00:36:54.605Z,99286.41
2022-07-31T00:39:21.220Z,99282.94
2022-07-31T00:41:47.937Z,99278.25
2022-07-31T00:44:14.521Z,99288.94
2022-07-31T00:46:42.279Z,99281.97
2022-07-31T00:49:12.951Z,99284.94
2022-07-31T00:51:40.337Z,99289.25
2022-07-31T00:54:08.552Z,99284.78
2022-07-31T00:56:35.741Z,99284.25
2022-07-31T00:59:02.519Z,99284.97
2022-07-31T01:01:29.494Z,99285.63
2022-07-31T01:03:57.378Z,99294.06
2022-07-31T01:06:24.646Z,99281.19
2022-07-31T01:08:52.624Z,99282.53
2022-07-31T01:12:24.490Z,99284.34
2022-07-31T01:14:54.970Z,99280.50
2022-07-31T01:17:23.812Z,99282.16
2022-07-31T01:19:52.618Z,99282.16
2022-07-31T01:22:46.733Z,99279.19
2022-07-31T01:25:34.332Z,99282.97
2022-07-31T01:28:20.408Z,99274.22
2022-07-31T01:31:04.985Z,99273.56
2022-07-31T01:33:46.891Z,99275.53
2022-07-31T01:36:17.085Z,99273.88
2022-07-31T01:38:48.323Z,99273.72
2022-07-31T01:41:17.184Z,99268.25
2022-07-31T01:43:48.328Z,99269.09
2022-07-31T01:46:17.709Z,99264.44
2022-07-31T01:48:45.226Z,99261.63
2022-07-31T01:51:13.052Z,99258.09
2022-07-31T01:53:41.224Z,99252.97
2022-07-31T01:56:09.098Z,99258.56
2022-07-31T01:58:38.371Z,99255.56
2022-07-31T02:01:09.109Z,99255.63
2022-07-31T02:03:43.651Z,99261.84
2022-07-31T02:06:13.735Z,99253.97
2022-07-31T02:08:41.481Z,99256.66
2022-07-31T02:11:08.777Z,99262.66
2022-07-31T02:13:36.364Z,99256.31
2022-07-31T02:16:04.896Z,99257.66
2022-07-31T02:18:33.148Z,99264.22
2022-07-31T02:21:01.889Z,99256.56
2022-07-31T02:23:28.721Z,99260.22
2022-07-31T02:25:55.757Z,99263.88
2022-07-31T02:28:23.899Z,99255.97
2022-07-31T02:30:51.993Z,99254.44
2022-07-31T02:33:21.745Z,99253.59
2022-07-31T02:35:50.280Z,99252.59
2022-07-31T02:38:23.506Z,99249.00
2022-07-31T02:40:51.803Z,99246.34
2022-07-31T02:43:19.900Z,99242.53
2022-07-31T02:45:47.443Z,99239.53
2022-07-31T02:48:14.530Z,99241.66
2022-07-31T02:50:42.029Z,99239.34
2022-07-31T02:53:09.031Z,99242.00
2022-07-31T02:55:36.976Z,99237.09
2022-07-31T02:58:06.696Z,99237.09
2022-07-31T03:00:33.684Z,99245.25
2022-07-31T03:03:01.181Z,99243.56
2022-07-31T03:05:28.433Z,99244.41
2022-07-31T03:07:55.029Z,99240.03
2022-07-31T03:10:22.695Z,99240.41
2022-07-31T03:12:52.041Z,99237.44
2022-07-31T03:15:20.410Z,99221.53
2022-07-31T03:17:48.322Z,99227.78
2022-07-31T03:20:16.403Z,99229.88
2022-07-31T03:22:43.793Z,99224.59
2022-07-31T03:25:11.165Z,99224.19
2022-07-31T03:27:55.644Z,99216.53
2022-07-31T03:30:25.515Z,99225.84
2022-07-31T03:32:55.767Z,99228.81
2022-07-31T03:35:24.303Z,99228.81
2022-07-31T03:37:51.694Z,99227.66
2022-07-31T03:40:18.815Z,99227.31
2022-07-31T03:42:47.007Z,99228.81
2022-07-31T03:45:13.929Z,99232.00
2022-07-31T03:47:41.049Z,99226.22
2022-07-31T03:50:09.908Z,99231.47
2022-07-31T03:52:37.860Z,99233.47
2022-07-31T03:55:05.047Z,99232.31
2022-07-31T03:57:34.185Z,99231.47
2022-07-31T04:00:03.086Z,99224.34
2022-07-31T04:02:31.693Z,99235.50
2022-07-31T04:04:59.746Z,99234.13
2022-07-31T04:07:26.528Z,99241.44
2022-07-31T04:09:54.767Z,99243.75
2022-07-31T04:12:23.278Z,99234.13
2022-07-31T04:14:51.115Z,99239.25
2022-07-31T04:17:17.865Z,99240.75
2022-07-31T04:19:45.322Z,99245.72
2022-07-31T04:22:12.123Z,99251.34
2022-07-31T04:24:40.827Z,99255.34
2022-07-31T04:27:12.557Z,99252.41
2022-07-31T04:29:39.971Z,99249.72
2022-07-31T04:32:07.214Z,99249.38
2022-07-31T04:34:35.028Z,99253.66
2022-07-31T04:37:01.976Z,99248.66
2022-07-31T04:39:28.959Z,99258.44
2022-07-31T04:41:57.817Z,99254.63
2022-07-31T04:44:24.662Z,99249.00
2022-07-31T04:46:52.026Z,99254.31
2022-07-31T04:49:19.247Z,99248.97
2022-07-31T04:51:46.365Z,99258.91
2022-07-31T04:54:14.180Z,99254.44
2022-07-31T04:56:44.667Z,99258.91
2022-07-31T04:59:13.645Z,99268.56
2022-07-31T05:01:43.584Z,99267.41
2022-07-31T05:04:14.217Z,99266.13
2022-07-31T05:06:49.853Z,99261.84
2022-07-31T05:09:19.644Z,99265.00
2022-07-31T05:11:52.065Z,99267.84
2022-07-31T05:14:21.085Z,99266.78
2022-07-31T05:16:48.578Z,99269.44
2022-07-31T05:19:16.055Z,99270.09
2022-07-31T05:21:53.407Z,99273.06
2022-07-31T05:24:33.229Z,99263.41
2022-07-31T05:27:03.560Z,99272.34
2022-07-31T05:29:31.470Z,99264.31
2022-07-31T05:32:00.563Z,99260.84
2022-07-31T05:34:29.910Z,99266.63
2022-07-31T05:36:59.539Z,99261.63
2022-07-31T05:39:26.976Z,99264.91
2022-07-31T05:41:54.810Z,99267.66
2022-07-31T05:44:22.227Z,99269.50
2022-07-31T05:49:16.926Z,99270.00
2022-07-31T05:51:45.967Z,99266.09
2022-07-31T05:54:14.538Z,99263.91
2022-07-31T05:56:42.314Z,99249.28
2022-07-31T05:59:10.110Z,99249.72
2022-07-31T06:01:37.973Z,99251.66
2022-07-31T06:04:06.449Z,99260.00
2022-07-31T06:06:33.678Z,99254.09
2022-07-31T06:09:04.406Z,99252.72
2022-07-31T06:11:32.395Z,99249.09
2022-07-31T06:13:59.729Z,99255.25
2022-07-31T06:16:26.789Z,99263.22
2022-07-31T06:18:54.226Z,99262.78
2022-07-31T06:23:48.263Z,99260.69
2022-07-31T06:26:15.267Z,99255.97
2022-07-31T06:28:48.870Z,99265.50
2022-07-31T06:31:18.611Z,99264.13
2022-07-31T06:33:48.229Z,99263.72
2022-07-31T06:36:17.613Z,99262.69
2022-07-31T06:38:46.319Z,99258.91
2022-07-31T06:41:35.551Z,99254.00
2022-07-31T06:44:06.010Z,99256.16
2022-07-31T06:46:33.793Z,99248.38
2022-07-31T06:49:06.880Z,99254.09
2022-07-31T06:51:37.702Z,99242.38
2022-07-31T06:54:09.857Z,99254.03
2022-07-31T06:56:40.349Z,99251.78
2022-07-31T06:59:08.320Z,99248.06
2022-07-31T07:01:36.541Z,99247.84
2022-07-31T07:04:04.850Z,99250.41
2022-07-31T07:06:36.066Z,99257.19
2022-07-31T07:09:03.672Z,99256.31
2022-07-31T07:11:33.222Z,99252.56
2022-07-31T07:14:00.848Z,99261.13
2022-07-31T07:16:29.752Z,99242.72
2022-07-31T07:18:57.653Z,99246.84
2022-07-31T07:21:32.355Z,99242.38
2022-07-31T07:24:03.089Z,99240.63
2022-07-31T07:26:31.630Z,99242.91
2022-07-31T07:28:59.851Z,99239.16
2022-07-31T07:31:27.829Z,99242.34
2022-07-31T07:33:56.635Z,99228.84
2022-07-31T07:36:30.063Z,99223.78
2022-07-31T07:38:58.398Z,99209.91
2022-07-31T07:41:26.267Z,99212.66
2022-07-31T07:43:54.037Z,99204.22
2022-07-31T07:46:26.088Z,99209.41
2022-07-31T07:48:53.277Z,99210.19
2022-07-31T07:51:23.673Z,99209.00
2022-07-31T07:53:55.078Z,99208.34
2022-07-31T07:56:25.114Z,99207.91
2022-07-31T07:58:54.474Z,99209.97
2022-07-31T08:01:21.696Z,99212.13
2022-07-31T08:03:52.060Z,99206.38
2022-07-31T08:06:21.160Z,99206.41
2022-07-31T08:08:48.431Z,99204.56
2022-07-31T08:11:17.022Z,99200.25
2022-07-31T08:13:49.538Z,99203.75
2022-07-31T08:16:17.392Z,99208.09
2022-07-31T08:18:46.797Z,99204.38
2022-07-31T08:21:14.747Z,99204.34
2022-07-31T08:23:41.921Z,99196.31
2022-07-31T08:26:09.376Z,99187.84
2022-07-31T08:28:37.929Z,99200.97
2022-07-31T08:31:08.343Z,99194.72
2022-07-31T08:33:35.138Z,99181.88
2022-07-31T08:36:01.916Z,99181.88
2022-07-31T08:38:29.381Z,99178.94
2022-07-31T08:40:56.284Z,99183.69
2022-07-31T08:44:03.250Z,99179.41
2022-07-31T08:46:11.037Z,99183.50
2022-07-31T08:48:40.664Z,99185.66
2022-07-31T08:51:08.006Z,99179.06
2022-07-31T08:53:37.856Z,99188.31
2022-07-31T08:56:06.668Z,99186.41
2022-07-31T08:58:38.663Z,99178.38
2022-07-31T09:01:06.369Z,99174.78
2022-07-31T09:03:34.993Z,99174.75
2022-07-31T09:06:01.960Z,99183.72
2022-07-31T09:08:33.445Z,99177.25
2022-07-31T09:11:14.897Z,99173.91
2022-07-31T09:14:03.344Z,99166.53
2022-07-31T09:16:31.421Z,99162.69
2022-07-31T09:19:51.655Z,99161.44
2022-07-31T09:21:53.373Z,99158.03
2022-07-31T09:24:39.665Z,99152.31
2022-07-31T09:27:10.544Z,99149.63
2022-07-31T09:29:44.376Z,99151.38
2022-07-31T09:32:19.015Z,99150.13
2022-07-31T09:34:47.961Z,99153.25
2022-07-31T09:37:19.897Z,99139.50
2022-07-31T09:39:54.398Z,99142.63
2022-07-31T09:42:25.560Z,99142.34
2022-07-31T09:44:52.576Z,99138.53
2022-07-31T09:47:38.250Z,99142.78
2022-07-31T09:50:06.414Z,99145.66
2022-07-31T09:52:34.018Z,99135.94
2022-07-31T09:55:16.981Z,99139.25
2022-07-31T09:57:55.979Z,99136.78
2022-07-31T10:00:23.802Z,99124.75
2022-07-31T10:02:52.953Z,99126.72
2022-07-31T10:05:23.318Z,99124.28
2022-07-31T10:07:50.473Z,99119.13
2022-07-31T10:10:17.748Z,99122.41
2022-07-31T10:12:49.074Z,99122.53
2022-07-31T10:15:17.558Z,99125.09
2022-07-31T10:17:47.539Z,99122.19
2022-07-31T10:20:22.111Z,99126.84
2022-07-31T10:22:56.048Z,99126.16
2022-07-31T10:25:26.962Z,99120.53
2022-07-31T10:27:57.379Z,99119.97
2022-07-31T10:30:28.091Z,99107.06
2022-07-31T10:32:56.687Z,99106.03
2022-07-31T10:35:23.544Z,99096.00
2022-07-31T10:38:30.340Z,99096.56
2022-07-31T10:41:08.117Z,99090.25
2022-07-31T10:43:57.762Z,99091.53
2022-07-31T10:46:29.365Z,99094.44
2022-07-31T10:48:57.679Z,99100.88
2022-07-31T10:51:27.729Z,99092.00
2022-07-31T10:54:06.174Z,99087.06
2022-07-31T10:56:44.521Z,99089.38
2022-07-31T10:59:12.967Z,99087.34
2022-07-31T11:01:53.318Z,99076.13
2022-07-31T11:04:32.513Z,99074.66
2022-07-31T11:07:00.184Z,99069.03
2022-07-31T11:09:29.182Z,99078.03
2022-07-31T11:11:57.397Z,99069.78
2022-07-31T11:14:39.708Z,99070.53
2022-07-31T11:17:07.548Z,99065.81
2022-07-31T11:19:43.015Z,99069.66
2022-07-31T11:22:32.104Z,99065.69
2022-07-31T11:25:04.091Z,99064.00
2022-07-31T11:27:31.819Z,99061.63
2022-07-31T11:30:13.001Z,99057.28
2022-07-31T11:32:41.515Z,99056.88
2022-07-31T11:35:14.145Z,99052.50
2022-07-31T11:37:56.489Z,99050.53
2022-07-31T11:40:27.859Z,99041.00
2022-07-31T11:43:23.552Z,99047.03
2022-07-31T11:45:48.310Z,99041.72
2022-07-31T11:48:19.359Z,99036.72
2022-07-31T11:50:47.522Z,99037.47
2022-07-31T11:53:14.685Z,99036.75
2022-07-31T11:55:49.938Z,99037.53
2022-07-31T11:58:18.908Z,99040.81
2022-07-31T12:00:50.555Z,99036.16
2022-07-31T12:03:23.130Z,99032.16
2022-07-31T12:05:55.240Z,99029.38
2022-07-31T12:08:24.045Z,99033.16
2022-07-31T12:10:55.526Z,99036.97
2022-07-31T12:13:24.145Z,99023.16
2022-07-31T12:15:59.584Z,99027.34
2022-07-31T12:18:28.576Z,99019.09
2022-07-31T12:20:56.975Z,99025.88
2022-07-31T12:23:40.819Z,99019.75
2022-07-31T12:26:09.505Z,99009.94
2022-07-31T12:28:36.730Z,99018.53
2022-07-31T12:31:04.058Z,99009.94
2022-07-31T12:33:41.008Z,99012.09
2022-07-31T12:36:16.229Z,99015.75
2022-07-31T12:38:48.441Z,99008.72
2022-07-31T12:41:16.623Z,99008.81
2022-07-31T12:43:50.915Z,99006.38
2022-07-31T12:46:35.048Z,99007.16
2022-07-31T12:49:02.540Z,99003.72
2022-07-31T12:51:45.463Z,99001.13
2022-07-31T12:54:18.061Z,99001.94
2022-07-31T12:56:47.559Z,98987.56
2022-07-31T12:59:14.529Z,99001.59
2022-07-31T13:01:45.493Z,98989.53
2022-07-31T13:04:19.028Z,98985.13
2022-07-31T13:06:49.049Z,98976.06
2022-07-31T13:09:16.228Z,98974.44
2022-07-31T13:11:46.645Z,98969.44
2022-07-31T13:14:20.517Z,98971.88
2022-07-31T13:16:48.266Z,98966.34
2022-07-31T13:19:15.611Z,98962.91
2022-07-31T13:21:49.478Z,98960.34
2022-07-31T13:24:21.126Z,98958.25
2022-07-31T13:26:49.264Z,98954.75
2022-07-31T13:29:17.883Z,98957.75
2022-07-31T13:31:44.882Z,98950.16
2022-07-31T13:34:12.975Z,98950.16
2022-07-31T13:36:43.001Z,98943.66
2022-07-31T13:39:10.215Z,98951.00
2022-07-31T13:41:39.704Z,98937.44
2022-07-31T13:44:08.273Z,98939.38
2022-07-31T13:46:35.417Z,98931.06
2022-07-31T13:49:02.730Z,98932.97
2022-07-31T13:51:30.100Z,98920.53
2022-07-31T13:53:57.292Z,98922.53
2022-07-31T13:56:39.145Z,98920.06
2022-07-31T13:59:14.146Z,98917.38
2022-07-31T14:02:13.437Z,98917.63
2022-07-31T14:04:38.185Z,98910.22
2022-07-31T14:07:06.855Z,98905.09
2022-07-31T14:09:35.155Z,98902.44
2022-07-31T14:12:04.459Z,98908.78
2022-07-31T14:14:34.136Z,98909.66
2022-07-31T14:17:01.541Z,98913.63
2022-07-31T14:19:28.795Z,98907.69
2022-07-31T14:21:57.841Z,98904.66
2022-07-31T14:24:30.598Z,98903.94
2022-07-31T14:26:57.726Z,98903.19
2022-07-31T14:29:24.916Z,98891.50
2022-07-31T14:31:53.039Z,98898.75
2022-07-31T14:34:24.376Z,98887.44
2022-07-31T14:37:03.300Z,98886.81
2022-07-31T14:39:31.181Z,98885.91
2022-07-31T14:42:01.214Z,98887.72
2022-07-31T14:44:31.430Z,98888.00
2022-07-31T14:47:00.032Z,98887.19
2022-07-31T14:50:09.498Z,98889.03
2022-07-31T14:52:23.146Z,98890.84
2022-07-31T14:54:51.672Z,98888.44
2022-07-31T14:57:22.277Z,98883.13
2022-07-31T14:59:51.499Z,98885.53
2022-07-31T15:02:22.509Z,98877.19
2022-07-31T15:04:53.370Z,98884.03
2022-07-31T15:07:41.180Z,98869.50
2022-07-31T15:10:10.365Z,98882.50
2022-07-31T15:12:42.478Z,98886.19
2022-07-31T15:15:14.222Z,98873.34
2022-07-31T15:17:44.200Z,98885.66
2022-07-31T15:20:11.683Z,98884.19
2022-07-31T15:22:38.587Z,98883.47
2022-07-31T15:25:06.244Z,98875.53
2022-07-31T15:27:33.233Z,98874.16
2022-07-31T15:30:06.467Z,98875.59
2022-07-31T15:32:39.219Z,98866.06
2022-07-31T15:35:08.055Z,98874.91
2022-07-31T15:37:39.286Z,98875.84
2022-07-31T15:40:08.102Z,98867.59
2022-07-31T15:42:40.818Z,98867.94
2022-07-31T15:45:20.589Z,98863.44
2022-07-31T15:47:48.213Z,98867.78
2022-07-31T15:50:17.800Z,98859.75
2022-07-31T15:52:44.963Z,98860.81
2022-07-31T15:55:11.957Z,98859.13
2022-07-31T15:57:39.555Z,98856.91
2022-07-31T16:00:10.548Z,98857.56
2022-07-31T16:02:37.747Z,98851.22
2022-07-31T16:05:21.311Z,98854.13
2022-07-31T16:08:29.170Z,98852.66
2022-07-31T16:10:35.435Z,98849.75
2022-07-31T16:13:03.486Z,98842.25
2022-07-31T16:15:30.904Z,98849.75
2022-07-31T16:17:58.118Z,98840.13
2022-07-31T16:20:26.806Z,98838.75
2022-07-31T16:22:56.484Z,98830.09
2022-07-31T16:25:24.964Z,98836.81
2022-07-31T16:27:52.271Z,98832.22
2022-07-31T16:30:19.192Z,98827.19
2022-07-31T16:32:46.367Z,98820.50
2022-07-31T16:35:13.244Z,98825.41
2022-07-31T16:37:51.234Z,98817.00
2022-07-31T16:40:28.768Z,98824.16
2022-07-31T16:42:56.460Z,98826.97
2022-07-31T16:45:23.543Z,98813.63
2022-07-31T16:47:51.523Z,98818.81
2022-07-31T16:50:18.530Z,98806.63
2022-07-31T16:52:45.356Z,98815.44
2022-07-31T16:55:11.946Z,98812.34
2022-07-31T16:57:38.533Z,98816.22
2022-07-31T17:00:07.270Z,98816.53
2022-07-31T17:02:34.300Z,98805.25
2022-07-31T17:05:00.983Z,98814.72
2022-07-31T17:07:28.618Z,98808.59
2022-07-31T17:09:55.222Z,98806.16
2022-07-31T17:12:21.856Z,98806.56
2022-07-31T17:14:48.765Z,98812.03
2022-07-31T17:17:16.980Z,98803.06
2022-07-31T17:19:46.820Z,98818.94
2022-07-31T17:22:17.798Z,98810.47
2022-07-31T17:24:50.522Z,98811.88
2022-07-31T17:27:17.969Z,98817.94
2022-07-31T17:29:44.791Z,98818.22
2022-07-31T17:32:11.756Z,98820.81
2022-07-31T17:34:39.354Z,98819.28
2022-07-31T17:37:07.406Z,98818.78
2022-07-31T17:39:35.389Z,98821.97
2022-07-31T17:42:02.159Z,98826.16
2022-07-31T17:44:29.570Z,98827.53
2022-07-31T17:46:57.871Z,98824.94
2022-07-31T17:49:25.158Z,98829.25
2022-07-31T17:52:07.990Z,98824.06
2022-07-31T17:54:34.987Z,98820.88
2022-07-31T17:57:02.249Z,98824.91
2022-07-31T17:59:29.396Z,98831.47
2022-07-31T18:02:06.887Z,98832.34
2022-07-31T18:04:37.245Z,98836.03
2022-07-31T18:07:05.497Z,98833.91
2022-07-31T18:09:33.053Z,98838.16
2022-07-31T18:12:00.280Z,98832.34
2022-07-31T18:14:27.292Z,98841.09
2022-07-31T18:16:58.754Z,98834.97
2022-07-31T18:19:25.506Z,98837.59
2022-07-31T18:21:52.826Z,98832.19
2022-07-31T18:24:20.802Z,98831.03
2022-07-31T18:26:47.798Z,98837.63
2022-07-31T18:29:19.781Z,98836.91
2022-07-31T18:31:47.004Z,98844.50
2022-07-31T18:34:13.956Z,98841.38
2022-07-31T18:36:40.811Z,98838.69
2022-07-31T18:39:07.811Z,98844.69
2022-07-31T18:41:34.553Z,98838.53
2022-07-31T18:44:01.545Z,98838.75
2022-07-31T18:46:28.272Z,98842.00
2022-07-31T18:48:56.267Z,98842.13
2022-07-31T18:51:25.114Z,98842.00
2022-07-31T18:53:52.011Z,98845.06
2022-07-31T18:56:21.793Z,98847.19
2022-07-31T18:58:52.198Z,98847.41
2022-07-31T19:01:19.118Z,98855.38
2022-07-31T19:03:45.908Z,98855.72
2022-07-31T19:06:12.995Z,98856.75
2022-07-31T19:08:39.694Z,98863.53
2022-07-31T19:11:06.485Z,98858.94
2022-07-31T19:13:33.417Z,98856.63
2022-07-31T19:16:00.225Z,98861.75
2022-07-31T19:18:30.282Z,98863.38
2022-07-31T19:21:23.206Z,98870.22
2022-07-31T19:23:44.081Z,98857.25
2022-07-31T19:26:10.917Z,98871.25
2022-07-31T19:28:39.844Z,98866.19
2022-07-31T19:31:06.823Z,98872.44
2022-07-31T19:33:33.431Z,98874.84
2022-07-31T19:36:02.660Z,98879.63
2022-07-31T19:38:31.582Z,98878.53
2022-07-31T19:40:58.537Z,98870.91
2022-07-31T19:43:25.222Z,98873.72
2022-07-31T19:45:59.816Z,98873.22
2022-07-31T19:48:40.974Z,98880.06
2022-07-31T19:51:08.154Z,98881.34
2022-07-31T19:53:35.084Z,98880.34
2022-07-31T19:56:05.731Z,98883.09
2022-07-31T19:58:36.354Z,98879.25
2022-07-31T20:01:05.094Z,98878.78
2022-07-31T20:03:32.115Z,98871.88
2022-07-31T20:05:58.910Z,98872.56
2022-07-31T20:08:25.626Z,98879.34
2022-07-31T20:10:52.449Z,98873.91
2022-07-31T20:13:19.228Z,98879.03
2022-07-31T20:15:52.563Z,98886.53
2022-07-31T20:18:27.171Z,98882.06
2022-07-31T20:20:59.148Z,98890.69
2022-07-31T20:23:27.057Z,98890.03
2022-07-31T20:25:53.887Z,98890.84
2022-07-31T20:28:20.768Z,98885.50
2022-07-31T20:30:47.407Z,98881.25
2022-07-31T20:33:14.234Z,98886.81
2022-07-31T20:35:48.383Z,98885.03
2022-07-31T20:38:17.230Z,98874.63
2022-07-31T20:40:52.972Z,98876.78
2022-07-31T20:43:28.268Z,98885.47
2022-07-31T20:45:59.280Z,98879.00
2022-07-31T20:48:31.703Z,98878.66
2022-07-31T20:50:59.698Z,98874.84
2022-07-31T20:53:26.622Z,98875.66
2022-07-31T20:55:53.342Z,98884.97
2022-07-31T20:58:21.479Z,98883.56
2022-07-31T21:00:49.438Z,98881.34
2022-07-31T21:03:16.994Z,98875.84
2022-07-31T21:05:44.489Z,98891.06
2022-07-31T21:08:12.125Z,98876.63
2022-07-31T21:10:39.935Z,98874.03
2022-07-31T21:13:06.551Z,98877.88
2022-07-31T21:15:41.987Z,98874.22
2022-07-31T21:18:12.023Z,98872.81
2022-07-31T21:20:52.045Z,98872.97
2022-07-31T21:23:24.512Z,98872.34
2022-07-31T21:25:52.512Z,98870.50
2022-07-31T21:28:19.375Z,98869.97
2022-07-31T21:30:46.932Z,98860.69
2022-07-31T21:33:13.688Z,98876.19
2022-07-31T21:35:40.900Z,98868.56
2022-07-31T21:38:12.146Z,98868.16
2022-07-31T21:40:39.997Z,98872.97
2022-07-31T21:43:07.221Z,98882.56
2022-07-31T21:45:49.712Z,98876.53
2022-07-31T21:48:22.743Z,98876.44
2022-07-31T21:50:49.394Z,98878.19
2022-07-31T21:53:16.015Z,98886.09
2022-07-31T21:55:42.799Z,98892.50
2022-07-31T21:58:09.786Z,98885.34
2022-07-31T22:00:36.988Z,98895.97
2022-07-31T22:03:04.745Z,98892.91
2022-07-31T22:05:50.853Z,98902.13
2022-07-31T22:08:17.715Z,98907.28
2022-07-31T22:10:44.666Z,98906.03
2022-07-31T22:13:11.341Z,98900.94
2022-07-31T22:15:55.387Z,98911.19
2022-07-31T22:18:29.788Z,98920.28
2022-07-31T22:20:57.525Z,98916.56
2022-07-31T22:23:25.269Z,98928.69
2022-07-31T22:25:51.981Z,98943.69
2022-07-31T22:28:20.340Z,98944.69
2022-07-31T22:30:47.377Z,98937.53
2022-07-31T22:33:14.615Z,98944.94
2022-07-31T22:35:41.306Z,98946.78
2022-07-31T22:38:11.741Z,98946.94
2022-07-31T22:40:38.637Z,98951.31
2022-07-31T22:44:09.881Z,98950.06
2022-07-31T22:45:53.650Z,98953.19
2022-07-31T22:48:21.918Z,98953.66
2022-07-31T22:50:49.335Z,98956.78
2022-07-31T22:53:15.942Z,98956.97
2022-07-31T22:55:42.591Z,98961.50
2022-07-31T22:58:11.499Z,98964.75
2022-07-31T23:00:38.518Z,98964.41
2022-07-31T23:03:05.245Z,98964.81
2022-07-31T23:06:02.759Z,98963.38
2022-07-31T23:08:18.630Z,98966.03
2022-07-31T23:10:45.263Z,98967.47
2022-07-31T23:13:11.824Z,98960.91
2022-07-31T23:15:38.441Z,98975.06
2022-07-31T23:18:05.065Z,98969.75
2022-07-31T23:20:31.951Z,98958.63
2022-07-31T23:22:58.587Z,98957.84
2022-07-31T23:25:25.203Z,98966.47
2022-07-31T23:27:51.910Z,98961.72
2022-07-31T23:30:18.564Z,98966.66
2022-07-31T23:32:45.267Z,98967.06
2022-07-31T23:35:11.955Z,98965.44
2022-07-31T23:37:38.677Z,98973.63
2022-07-31T23:40:06.159Z,98970.34
2022-07-31T23:42:38.685Z,98973.22
2022-07-31T23:45:11.332Z,98961.72
2022-07-31T23:47:45.656Z,98967.25
2022-07-31T23:50:13.870Z,98959.91
2022-07-31T23:52:40.650Z,98957.63
2022-07-31T23:55:07.765Z,98953.72
2022-07-31T23:57:36.217Z,98960.28
